This is the latest recevied weather packets stored in our database for station/object IZ5TJI-3. If no packets are shown the sender has not sent any weather packets the latest 10 day(s).
| Time | Temp. | Humidity | Pressure | Rain* | Wind** | Luminosity | Snow |
|---|---|---|---|---|---|---|---|
| 1777250734 | 7.22° C | 82% | 1018.2 hPa | 0 mm | - | - | - |
| 1777249834 | 7.78° C | 82% | 1018.3 hPa | 0 mm | - | - | - |
| 1777248934 | 8.33° C | 82% | 1018.2 hPa | 0 mm | - | - | - |
| 1777248034 | 8.33° C | 82% | 1018.4 hPa | 0 mm | - | - | - |
| 1777247134 | 8.89° C | 81% | 1018.3 hPa | 0 mm | - | - | - |
| 1777246235 | 8.89° C | 80% | 1018.4 hPa | 0 mm | - | - | - |
| 1777245334 | 8.89° C | 79% | 1018.5 hPa | 0 mm | - | - | - |
| 1777244435 | 9.44° C | 79% | 1018.3 hPa | 0 mm | - | - | - |
| 1777243535 | 9.44° C | 78% | 1018.4 hPa | 0 mm | - | - | - |
| 1777242635 | 8.89° C | 78% | 1018.3 hPa | 0 mm | - | - | - |
| 1777241735 | 9.44° C | 77% | 1018.3 hPa | 0 mm | - | - | - |
| 1777240835 | 10° C | 77% | 1018.3 hPa | 0 mm | - | - | - |
| 1777239935 | 10° C | 75% | 1018.4 hPa | 0 mm | - | - | - |
| 1777239035 | 10.56° C | 75% | 1018.3 hPa | 0 mm | - | - | - |
| 1777238135 | 11.11° C | 75% | 1018.3 hPa | 0 mm | - | - | - |
| 1777237235 | 11.11° C | 74% | 1018.4 hPa | 0 mm | - | - | - |
| 1777236335 | 11.67° C | 72% | 1018.4 hPa | 0 mm | - | - | - |
| 1777235435 | 12.22° C | 72% | 1018.3 hPa | 0 mm | - | - | - |
| 1777234535 | 12.78° C | 68% | 1018 hPa | 0 mm | - | - | - |
| 1777233635 | 13.33° C | 66% | 1018 hPa | 0 mm | - | - | - |
| 1777232735 | 13.89° C | 65% | 1017.9 hPa | 0 mm | - | - | - |
| 1777231835 | 13.89° C | 64% | 1017.8 hPa | 0 mm | - | - | - |
| 1777230935 | 14.44° C | 62% | 1017.7 hPa | 0 mm | - | - | - |
| 1777230035 | 15.56° C | 59% | 1017.3 hPa | 0 mm | - | - | - |
| 1777229135 | 15.56° C | 57% | 1017.3 hPa | 0 mm | - | - | - |
* Rain latest hour (hover to see other rain measurements)
** Current wind speed in m/s (hover to see current wind gust speed)